Time;durP1;ratioP1;P1;durP2;ratioP2;P2;SDS_P1;SDS_P2;PMS_P1;PMS_P2;Temp;Humidity;BMP_temperature;BMP_pressure;BME280_temperature;BME280_humidity;BME280_pressure;Samples;Min_cycle;Max_cycle;Signal;HPM_P1;HPM_P2
2022/05/03 00:01:12;;;;;;;6.18;4.22;;;;;;;11.30;65.21;99075.56;5080916;28;20035;-59
2022/05/03 00:03:51;;;;;;;4.90;4.03;;;;;;;11.30;65.15;99073.84;5093614;28;20028;-59
2022/05/03 00:06:29;;;;;;;4.80;3.60;;;;;;;11.34;64.86;99071.97;5084430;28;20097;-58
2022/05/03 00:09:07;;;;;;;5.63;4.00;;;;;;;11.35;65.03;99058.13;5082321;28;20048;-60
2022/05/03 00:11:37;;;;;;;7.43;4.22;;;;;;;11.34;64.32;99069.38;5074220;28;20100;-59
2022/05/03 00:14:24;;;;;;;8.13;4.50;;;;;;;11.03;64.97;99022.06;5088846;28;20024;-58
2022/05/03 00:16:50;;;;;;;4.10;3.70;;;;;;;11.22;64.83;99061.13;5078845;28;20024;-58
2022/05/03 00:19:16;;;;;;;6.70;4.68;;;;;;;11.27;64.64;99060.97;5083116;28;20028;-59
2022/05/03 00:21:42;;;;;;;5.60;4.22;;;;;;;11.33;64.74;99059.91;5086716;28;20379;-59
2022/05/03 00:24:08;;;;;;;4.75;3.63;;;;;;;11.30;64.66;99054.84;5092517;28;20115;-58
2022/05/03 00:26:35;;;;;;;5.75;4.18;;;;;;;11.29;64.92;99054.00;5090041;28;20534;-59
2022/05/03 00:29:01;;;;;;;6.45;4.00;;;;;;;11.26;64.74;99054.13;5081162;28;20032;-58
2022/05/03 00:31:27;;;;;;;6.28;4.57;;;;;;;11.25;65.18;99051.56;5093379;28;20477;-58
2022/05/03 00:33:54;;;;;;;7.13;4.57;;;;;;;11.16;66.54;99050.97;5092674;28;20487;-58
2022/05/03 00:36:20;;;;;;;7.22;4.55;;;;;;;11.09;66.08;99056.41;5093209;28;20081;-59
2022/05/03 00:38:46;;;;;;;5.63;4.32;;;;;;;11.02;66.70;99048.00;5093006;28;20023;-59
2022/05/03 00:41:20;;;;;;;8.27;4.00;;;;;;;10.67;66.36;98990.44;5082554;28;20033;-58
2022/05/03 00:43:57;;;;;;;6.32;4.32;;;;;;;11.00;67.13;99042.03;5067386;28;20092;-59
2022/05/03 00:46:27;;;;;;;6.78;4.40;;;;;;;10.83;66.72;99019.28;5084467;28;20030;-58
2022/05/03 00:49:25;;;;;;;6.07;4.25;;;;;;;11.01;67.29;99034.19;5086240;28;20028;-59
2022/05/03 00:52:06;;;;;;;6.72;3.97;;;;;;;11.01;66.91;99034.19;5078881;28;20082;-58
2022/05/03 00:55:00;;;;;;;6.32;4.82;;;;;;;10.59;67.63;98970.00;5079758;28;20042;-59
2022/05/03 00:57:41;;;;;;;5.05;3.85;;;;;;;10.64;67.45;98982.78;5084569;28;20056;-59
2022/05/03 01:00:10;;;;;;;6.70;4.30;;;;;;;10.59;67.88;98969.13;5061877;28;20021;-59
2022/05/03 01:03:00;;;;;;;6.32;4.53;;;;;;;10.91;67.74;99032.81;5072426;28;20045;-59
2022/05/03 01:05:44;;;;;;;5.10;4.10;;;;;;;10.92;67.70;99023.31;5091071;28;20027;-60
2022/05/03 01:08:20;;;;;;;6.15;4.68;;;;;;;10.82;68.26;99013.25;5092804;28;20036;-59
2022/05/03 01:11:18;;;;;;;4.78;4.15;;;;;;;10.88;68.44;99022.56;5081499;28;20066;-58
2022/05/03 01:14:17;;;;;;;4.43;4.03;;;;;;;10.87;67.78;99016.56;5051282;28;20439;-58
2022/05/03 01:17:03;;;;;;;6.00;4.70;;;;;;;10.88;67.84;99019.97;5084798;28;20032;-60
2022/05/03 01:19:40;;;;;;;5.57;4.60;;;;;;;10.89;67.88;99026.84;5083071;28;20538;-59
2022/05/03 01:22:26;;;;;;;6.93;4.40;;;;;;;10.77;67.75;99007.38;5074052;28;20409;-59
2022/05/03 01:25:23;;;;;;;5.47;4.53;;;;;;;10.83;68.25;99002.00;5077465;28;20054;-59
2022/05/03 01:28:17;;;;;;;5.90;4.80;;;;;;;10.69;68.41;98986.09;5089585;28;20063;-58
2022/05/03 01:30:49;;;;;;;8.68;4.80;;;;;;;10.52;67.76;98948.63;5076287;28;20020;-59
2022/05/03 01:33:30;;;;;;;5.85;4.75;;;;;;;10.64;68.32;98988.81;5092092;28;20028;-59
2022/05/03 01:35:59;;;;;;;5.13;4.53;;;;;;;10.71;67.46;98992.03;5091981;28;20024;-59
2022/05/03 01:39:03;;;;;;;5.55;4.80;;;;;;;10.70;68.64;98990.34;5092520;28;20039;-58
2022/05/03 01:42:05;;;;;;;6.70;4.72;;;;;;;10.63;68.81;98986.25;5091990;28;20024;-58
2022/05/03 01:44:33;;;;;;;6.43;5.00;;;;;;;10.60;68.93;98994.13;5074979;28;20028;-59
2022/05/03 01:47:36;;;;;;;5.65;4.63;;;;;;;10.19;69.21;98916.94;5085800;28;20516;-58
2022/05/03 01:50:20;;;;;;;6.55;5.05;;;;;;;10.22;69.17;98919.41;5031638;28;20040;-58
2022/05/03 01:53:05;;;;;;;5.47;4.60;;;;;;;10.50;70.22;98991.00;5091261;28;20140;-58
2022/05/03 01:56:07;;;;;;;7.20;4.93;;;;;;;10.38;71.13;98988.81;5079109;28;20043;-58
2022/05/03 01:58:32;;;;;;;;;;;;;;;10.45;70.71;98983.38;5092537;28;20028;-59
2022/05/03 02:01:25;;;;;;;8.15;4.85;;;;;;;10.15;70.38;98928.25;5091449;28;19916;-58
2022/05/03 02:03:57;;;;;;;5.50;4.75;;;;;;;10.46;69.74;98989.41;5053055;28;20695;-58
2022/05/03 02:06:32;;;;;;;;;;;;;;;10.45;71.45;98980.81;5073606;28;20078;-59
2022/05/03 02:09:07;;;;;;;6.45;4.95;;;;;;;10.43;70.87;98973.97;5092072;28;19924;-60
2022/05/03 02:12:04;;;;;;;5.72;5.05;;;;;;;10.49;70.67;98990.16;5091347;28;20020;-59
2022/05/03 02:14:44;;;;;;;5.95;4.93;;;;;;;10.16;70.47;98938.56;5077527;28;20366;-59
2022/05/03 02:17:42;;;;;;;6.88;5.30;;;;;;;10.21;71.85;98984.16;5086898;28;20092;-59
2022/05/03 02:20:14;;;;;;;9.38;4.97;;;;;;;10.42;71.12;98987.81;5091207;28;20395;-59
2022/05/03 02:23:13;;;;;;;6.80;5.45;;;;;;;10.52;70.84;98990.06;5088854;28;20052;-59
2022/05/03 02:25:58;;;;;;;8.00;4.95;;;;;;;10.22;70.70;98926.31;5086955;28;20115;-59
2022/05/03 02:28:34;;;;;;;7.55;5.93;;;;;;;10.08;71.54;98927.59;5087217;28;20436;-59
2022/05/03 02:31:03;;;;;;;8.60;5.47;;;;;;;10.23;71.03;98917.66;5088210;28;20027;-59
2022/05/03 02:33:35;;;;;;;5.53;4.80;;;;;;;10.63;69.84;98969.00;5096000;28;20504;-59
2022/05/03 02:36:03;;;;;;;5.60;5.10;;;;;;;10.37;69.99;98912.91;5085248;28;20024;-59
2022/05/03 02:38:48;;;;;;;6.60;5.18;;;;;;;10.78;70.18;98975.41;5095515;28;20070;-59
2022/05/03 02:41:17;;;;;;;7.00;5.30;;;;;;;10.52;70.14;98917.56;5082358;28;20025;-59
2022/05/03 02:43:45;;;;;;;6.70;5.00;;;;;;;10.64;69.08;98924.06;5084196;28;20028;-59
2022/05/03 02:46:38;;;;;;;6.18;5.57;;;;;;;10.75;70.71;98969.50;5076083;28;20032;-59
2022/05/03 02:49:11;;;;;;;6.13;5.22;;;;;;;10.91;69.34;98921.44;5089541;28;20097;-59
2022/05/03 02:51:43;;;;;;;9.18;5.35;;;;;;;11.40;68.10;98955.09;5078054;28;20482;-59
2022/05/03 02:54:30;;;;;;;;;;;;;;;11.32;69.09;98954.53;5082222;28;20390;-59
2022/05/03 02:57:07;;;;;;;8.00;5.10;;;;;;;11.29;70.52;98955.50;5074447;28;20011;-59
2022/05/03 03:02:48;;;;;;;6.38;4.63;;;;;;;11.31;68.51;98895.81;5094446;28;20028;-59
2022/05/03 03:05:19;;;;;;;8.65;5.57;;;;;;;11.80;67.38;98953.63;5094906;28;20164;-60
2022/05/03 03:07:52;;;;;;;8.23;5.70;;;;;;;12.12;67.12;98948.09;5087992;28;20123;-58
2022/05/03 03:10:27;;;;;;;7.97;5.10;;;;;;;12.53;65.23;98951.63;5095349;28;20539;-59
2022/05/03 03:12:56;;;;;;;7.50;5.35;;;;;;;12.68;64.70;98949.28;5093237;28;20047;-59
2022/05/03 03:15:29;;;;;;;6.07;5.07;;;;;;;12.42;65.09;98918.28;5078687;28;20060;-59
2022/05/03 03:18:00;;;;;;;7.40;5.60;;;;;;;12.39;65.24;98902.00;5092296;28;20039;-60
2022/05/03 03:20:28;;;;;;;6.93;5.88;;;;;;;12.44;64.77;98939.00;5094583;28;20027;-59
2022/05/03 03:22:55;;;;;;;7.75;6.32;;;;;;;12.35;65.82;98931.59;5094469;28;20485;-58
2022/05/03 03:25:23;;;;;;;6.07;5.45;;;;;;;12.50;65.53;98951.75;5094600;28;20055;-59
2022/05/03 03:27:53;;;;;;;6.75;5.55;;;;;;;12.59;64.65;98935.75;5092697;28;20416;-59
2022/05/03 03:30:20;;;;;;;9.70;6.20;;;;;;;12.48;65.71;98939.72;5074111;28;20397;-59
2022/05/03 03:32:47;;;;;;;8.80;5.20;;;;;;;12.87;65.03;98932.00;5094102;28;20024;-59
2022/05/03 03:35:14;;;;;;;9.73;5.57;;;;;;;12.90;63.59;98939.66;5094385;28;20032;-59
2022/05/03 03:37:44;;;;;;;8.13;5.68;;;;;;;13.24;63.27;98940.78;5086264;28;20096;-59
2022/05/03 03:40:10;;;;;;;8.77;5.65;;;;;;;13.51;62.45;98937.03;5063145;28;20027;-59
2022/05/03 03:42:37;;;;;;;7.07;5.25;;;;;;;13.58;62.11;98938.44;5094245;28;20063;-59
2022/05/03 03:45:09;;;;;;;7.32;5.32;;;;;;;13.62;61.29;98929.59;5093430;28;20024;-59
2022/05/03 03:47:36;;;;;;;7.35;5.15;;;;;;;13.68;62.35;98929.31;5088233;28;20033;-59
2022/05/03 03:50:03;;;;;;;5.97;5.40;;;;;;;14.20;60.47;98925.97;5089213;28;20032;-59
2022/05/03 03:52:30;;;;;;;6.75;4.90;;;;;;;14.03;60.08;98929.41;5075927;28;20027;-58
2022/05/03 03:54:57;;;;;;;7.57;5.63;;;;;;;14.46;60.13;98919.47;5091797;28;20059;-59
2022/05/03 03:57:24;;;;;;;7.43;5.30;;;;;;;14.69;58.51;98924.50;5081655;28;20064;-59
2022/05/03 03:59:50;;;;;;;8.35;5.63;;;;;;;14.24;59.83;98913.66;5084690;28;20024;-57
2022/05/03 04:02:16;;;;;;;8.68;5.85;;;;;;;13.72;60.98;98920.44;5076360;28;20548;-58
2022/05/03 04:04:43;;;;;;;7.25;5.57;;;;;;;13.23;60.99;98868.88;5084977;28;20024;-58
2022/05/03 04:07:09;;;;;;;11.40;6.10;;;;;;;13.44;62.07;98926.09;5086781;28;20049;-59
2022/05/03 04:09:35;;;;;;;7.47;5.75;;;;;;;13.24;63.08;98924.31;5075397;28;20114;-58
2022/05/03 04:12:02;;;;;;;5.90;5.20;;;;;;;13.37;62.75;98914.28;5093743;28;20062;-58
2022/05/03 04:14:28;;;;;;;8.35;5.32;;;;;;;13.26;63.43;98914.72;5093818;28;20027;-58
2022/05/03 04:16:53;;;;;;;8.00;5.13;;;;;;;13.14;63.64;98905.72;5069191;28;20020;-59
2022/05/03 04:19:20;;;;;;;6.20;5.25;;;;;;;13.45;61.98;98906.94;5085634;28;20112;-58
2022/05/03 04:21:47;;;;;;;6.20;5.10;;;;;;;13.61;61.89;98902.72;5066052;28;20401;-59
2022/05/03 04:24:12;;;;;;;7.35;5.10;;;;;;;13.81;61.99;98895.75;5093324;28;20028;-58
2022/05/03 04:26:38;;;;;;;10.85;5.13;;;;;;;13.92;61.41;98898.69;5083312;28;20366;-59
2022/05/03 04:29:04;;;;;;;7.07;5.13;;;;;;;13.73;60.61;98885.69;5070996;28;20016;-58
2022/05/03 04:31:32;;;;;;;12.82;5.95;;;;;;;13.66;61.89;98876.50;5092529;28;20032;-58
2022/05/03 04:33:58;;;;;;;6.88;5.30;;;;;;;14.02;60.55;98887.81;5079010;28;20116;-58
2022/05/03 04:36:25;;;;;;;7.63;5.95;;;;;;;13.90;61.38;98894.47;5093136;28;20036;-59
2022/05/03 04:38:51;;;;;;;6.72;5.93;;;;;;;13.86;61.61;98888.56;5093184;28;20020;-59
2022/05/03 04:41:17;;;;;;;7.95;5.72;;;;;;;14.10;60.49;98880.47;5093092;28;20137;-58
2022/05/03 04:43:42;;;;;;;5.82;5.10;;;;;;;14.39;59.58;98886.00;5090399;28;20408;-59
2022/05/03 04:46:08;;;;;;;7.60;5.78;;;;;;;14.86;58.52;98884.53;5077594;28;20031;-58
2022/05/03 04:48:33;;;;;;;6.60;5.65;;;;;;;15.71;55.74;98878.22;5082499;28;20046;-59
2022/05/03 04:50:59;;;;;;;6.32;5.43;;;;;;;16.38;54.12;98876.16;5077526;28;20032;-59
2022/05/03 04:53:25;;;;;;;7.05;5.40;;;;;;;15.95;54.34;98870.81;5092918;28;20053;-60
2022/05/03 04:55:50;;;;;;;7.70;5.35;;;;;;;16.33;54.21;98870.38;5090072;28;20024;-59
2022/05/03 04:58:16;;;;;;;10.43;5.63;;;;;;;16.65;53.53;98867.63;5091393;28;20048;-59
2022/05/03 05:00:42;;;;;;;7.72;5.50;;;;;;;17.06;52.72;98874.78;5085945;28;20100;-59
2022/05/03 05:03:08;;;;;;;7.43;5.60;;;;;;;16.35;52.92;98865.88;5092769;28;20051;-59
2022/05/03 05:05:33;;;;;;;8.65;6.05;;;;;;;16.23;53.81;98871.81;5075520;28;20063;-59
2022/05/03 05:08:07;;;;;;;9.45;6.65;;;;;;;15.79;53.61;98820.38;5079055;28;20052;-59
2022/05/03 05:10:33;;;;;;;9.70;6.50;;;;;;;15.89;53.93;98873.78;5082018;28;20024;-59
2022/05/03 05:13:00;;;;;;;9.32;6.10;;;;;;;15.67;54.33;98820.09;5092122;28;20442;-58
2022/05/03 05:15:29;;;;;;;8.40;6.22;;;;;;;16.46;53.24;98867.03;5079072;28;20029;-58
2022/05/03 05:17:57;;;;;;;9.43;6.32;;;;;;;16.60;52.60;98876.66;5072605;28;20028;-58
2022/05/03 05:20:23;;;;;;;11.25;6.15;;;;;;;16.67;52.95;98865.75;5086561;28;20024;-58
2022/05/03 05:22:49;;;;;;;9.93;6.35;;;;;;;16.68;52.86;98861.38;5090103;28;20028;-58
2022/05/03 05:25:14;;;;;;;8.88;6.65;;;;;;;16.25;52.60;98856.06;5092099;28;20028;-58
2022/05/03 05:27:40;;;;;;;7.95;6.72;;;;;;;16.08;53.11;98857.06;5088085;28;20107;-58
2022/05/03 05:30:07;;;;;;;9.23;6.93;;;;;;;16.09;53.43;98854.34;5088895;28;20050;-58
2022/05/03 05:32:36;;;;;;;7.32;6.53;;;;;;;15.84;53.82;98862.75;5092306;28;20036;-59
2022/05/03 05:35:04;;;;;;;16.20;7.18;;;;;;;15.89;54.11;98834.59;5084290;28;20040;-59
2022/05/03 05:37:30;;;;;;;13.95;7.28;;;;;;;16.05;53.68;98845.84;5092161;28;20024;-59
2022/05/03 05:39:56;;;;;;;8.02;6.47;;;;;;;16.07;53.17;98850.97;5076680;28;20036;-58
2022/05/03 05:42:22;;;;;;;10.05;6.85;;;;;;;16.15;53.29;98846.16;5092144;28;20085;-59
2022/05/03 05:44:47;;;;;;;11.60;6.55;;;;;;;16.37;53.13;98850.13;5087574;28;20035;-59
2022/05/03 05:47:13;;;;;;;10.80;6.60;;;;;;;15.91;53.52;98842.34;5076322;28;20052;-59
2022/05/03 05:49:39;;;;;;;9.98;6.20;;;;;;;15.47;54.98;98846.50;5081599;28;20024;-59
2022/05/03 05:54:49;;;;;;;11.85;6.60;;;;;;;15.45;54.78;98840.50;5078346;28;20028;-59
2022/05/03 05:57:15;;;;;;;10.45;6.30;;;;;;;15.78;54.32;98837.78;5091862;28;20024;-59
2022/05/03 05:59:41;;;;;;;11.27;6.75;;;;;;;15.40;55.63;98837.31;5078382;28;20501;-58
2022/05/03 06:02:07;;;;;;;10.10;6.10;;;;;;;15.85;54.41;98831.31;5085508;28;20465;-59
2022/05/03 06:04:33;;;;;;;8.40;6.40;;;;;;;16.20;53.52;98831.06;5083156;28;20377;-58
2022/05/03 06:06:59;;;;;;;9.65;6.22;;;;;;;16.29;53.34;98832.28;5075902;28;20048;-57
2022/05/03 06:09:25;;;;;;;12.13;6.88;;;;;;;16.20;53.40;98838.03;5092129;28;20032;-58
2022/05/03 06:11:51;;;;;;;10.68;6.43;;;;;;;16.52;52.25;98828.31;5091836;28;20176;-58
2022/05/03 06:14:16;;;;;;;9.65;6.38;;;;;;;16.75;51.89;98831.31;5091684;28;20024;-59
2022/05/03 06:16:52;;;;;;;7.93;6.28;;;;;;;17.59;50.34;98829.63;5087535;28;20028;-58
2022/05/03 06:19:18;;;;;;;8.43;6.68;;;;;;;17.03;50.18;98827.88;5078658;28;20052;-59
2022/05/03 06:21:43;;;;;;;10.00;6.90;;;;;;;17.36;49.82;98812.78;5080016;28;20056;-59
2022/05/03 06:24:10;;;;;;;11.57;6.75;;;;;;;17.82;48.48;98803.72;5074625;28;20028;-59
2022/05/03 06:26:36;;;;;;;8.63;6.10;;;;;;;18.01;47.75;98812.06;5088714;28;20136;-59
2022/05/03 06:29:08;;;;;;;10.45;6.40;;;;;;;18.50;47.95;98812.31;5081753;28;20146;-59
2022/05/03 06:31:44;;;;;;;10.13;5.93;;;;;;;18.87;46.69;98807.16;5077225;28;20104;-59
2022/05/03 06:34:10;;;;;;;9.82;6.20;;;;;;;18.25;47.51;98808.75;5089936;28;20089;-59
2022/05/03 06:36:36;;;;;;;8.23;6.32;;;;;;;17.75;48.38;98809.34;5072477;28;20485;-59
2022/05/03 06:39:05;;;;;;;14.00;6.85;;;;;;;17.48;49.85;98804.13;5072957;28;20393;-59
2022/05/03 06:41:32;;;;;;;9.32;5.53;;;;;;;17.99;47.28;98800.03;5091143;28;20028;-59
2022/05/03 06:43:58;;;;;;;9.13;5.85;;;;;;;18.37;45.76;98797.44;5091388;28;20024;-59
2022/05/03 06:46:24;;;;;;;8.10;5.43;;;;;;;18.40;45.68;98786.72;5091149;28;20043;-60
2022/05/03 06:48:50;;;;;;;6.93;5.25;;;;;;;18.88;45.43;98793.13;5076929;28;20024;-57
2022/05/03 06:51:16;;;;;;;9.60;6.00;;;;;;;19.10;45.18;98788.03;5076372;28;20028;-58
2022/05/03 06:53:42;;;;;;;11.50;6.10;;;;;;;19.42;44.77;98784.84;5091210;28;20391;-59
2022/05/03 06:56:07;;;;;;;9.23;5.82;;;;;;;19.22;43.48;98781.06;5086913;28;20043;-59
2022/05/03 06:58:33;;;;;;;8.20;5.25;;;;;;;18.94;43.59;98774.31;5080960;28;20028;-59
2022/05/03 07:01:19;;;;;;;8.88;5.40;;;;;;;19.57;43.97;98776.84;5077764;28;20112;-59
2022/05/03 07:03:44;;;;;;;8.68;5.65;;;;;;;19.49;44.01;98780.84;5090107;28;20111;-59
2022/05/03 07:06:10;;;;;;;6.50;5.45;;;;;;;19.26;43.73;98776.44;5075978;28;20024;-59
2022/05/03 07:08:36;;;;;;;7.50;5.30;;;;;;;18.68;44.22;98776.13;5090208;28;20043;-59
2022/05/03 07:11:03;;;;;;;7.65;5.25;;;;;;;18.83;43.85;98727.81;5094732;28;20115;-60
2022/05/03 07:13:29;;;;;;;10.20;5.05;;;;;;;19.72;43.47;98772.22;5094411;28;20480;-59
2022/05/03 07:15:56;;;;;;;8.20;4.97;;;;;;;19.55;43.28;98762.97;5078273;28;20028;-59
2022/05/03 07:23:51;;;;;;;5.97;5.28;;;;;;;18.22;44.94;98757.38;5085166;28;20390;-58
2022/05/03 07:26:18;;;;;;;8.63;5.18;;;;;;;18.01;45.99;98757.03;5089316;28;20342;-59
2022/05/03 07:28:48;;;;;;;6.00;4.95;;;;;;;18.06;46.52;98743.63;5086692;28;20033;-59
2022/05/03 07:31:18;;;;;;;10.35;5.88;;;;;;;17.83;46.92;98745.13;5089582;28;20032;-58
2022/05/03 07:33:44;;;;;;;7.57;5.60;;;;;;;17.57;47.94;98739.84;5094094;28;20032;-58
2022/05/03 07:36:10;;;;;;;10.77;6.30;;;;;;;17.48;48.00;98743.06;5094461;28;20036;-58
2022/05/03 07:38:36;;;;;;;7.20;5.50;;;;;;;17.00;49.63;98743.50;5094403;28;20066;-58
2022/05/03 07:41:02;;;;;;;8.10;6.25;;;;;;;17.01;49.60;98739.97;5093958;28;20028;-58
2022/05/03 07:43:28;;;;;;;12.98;7.18;;;;;;;17.05;49.81;98734.44;5094027;28;20024;-58
2022/05/03 07:45:54;;;;;;;9.65;6.10;;;;;;;17.22;49.03;98728.13;5075494;28;20451;-58
2022/05/03 07:48:21;;;;;;;8.25;5.93;;;;;;;16.63;50.67;98730.94;5093560;28;20796;-58
2022/05/03 07:50:47;;;;;;;11.23;5.95;;;;;;;16.71;50.58;98726.06;5084710;28;20085;-58
2022/05/03 07:53:13;;;;;;;6.97;5.43;;;;;;;17.01;50.07;98719.03;5083163;28;20408;-59
2022/05/03 07:55:38;;;;;;;8.52;6.05;;;;;;;17.05;50.03;98717.91;5082805;28;20393;-59
2022/05/03 07:58:05;;;;;;;7.10;5.13;;;;;;;16.99;49.98;98723.53;5093682;28;20077;-59
2022/05/03 08:00:30;;;;;;;9.60;5.60;;;;;;;16.91;50.87;98722.22;5087912;28;20365;-59
2022/05/03 08:02:56;;;;;;;7.30;5.88;;;;;;;16.66;50.56;98729.88;5093353;28;20024;-58
2022/05/03 08:05:22;;;;;;;7.60;5.25;;;;;;;16.81;50.86;98718.47;5083054;28;20036;-58
2022/05/03 08:07:47;;;;;;;9.05;5.53;;;;;;;16.67;51.48;98705.44;5084279;28;20079;-59
2022/05/03 08:10:13;;;;;;;6.85;5.32;;;;;;;16.88;50.38;98719.78;5087678;28;20074;-59
2022/05/03 08:12:39;;;;;;;11.05;5.80;;;;;;;16.86;50.79;98705.09;5073960;28;20510;-59
2022/05/03 08:15:05;;;;;;;8.73;6.00;;;;;;;16.80;51.09;98702.88;5093192;28;20111;-59
2022/05/03 08:17:31;;;;;;;8.32;5.32;;;;;;;16.95;51.02;98704.56;5093165;28;20072;-59
2022/05/03 08:19:57;;;;;;;11.77;6.03;;;;;;;17.08;49.82;98702.81;5091737;28;20036;-59
2022/05/03 08:22:24;;;;;;;9.90;5.93;;;;;;;17.45;49.54;98689.13;5090592;28;20039;-59
2022/05/03 08:24:53;;;;;;;10.63;6.30;;;;;;;17.68;48.72;98694.63;5093442;28;20077;-60
2022/05/03 08:27:19;;;;;;;6.60;5.32;;;;;;;18.11;47.56;98679.50;5091214;28;20477;-58
2022/05/03 08:29:45;;;;;;;8.15;4.75;;;;;;;18.00;42.97;98674.16;5090604;28;20028;-59
2022/05/03 08:32:11;;;;;;;7.18;4.13;;;;;;;18.35;41.49;98663.00;5092957;28;20023;-59
2022/05/03 08:34:37;;;;;;;8.75;3.92;;;;;;;18.56;41.10;98679.00;5092603;28;20032;-60
2022/05/03 08:42:32;;;;;;;8.60;3.40;;;;;;;18.02;39.15;98679.28;5093281;28;20035;-59
2022/05/03 08:44:59;;;;;;;7.90;3.58;;;;;;;18.52;39.80;98669.66;5075031;28;20016;-58
2022/05/03 08:47:27;;;;;;;7.40;2.97;;;;;;;18.51;39.05;98675.03;5086188;28;20071;-59
2022/05/03 08:49:59;;;;;;;10.05;3.30;;;;;;;17.53;39.12;98670.28;5082953;28;20027;-59
2022/05/03 08:52:28;;;;;;;9.15;4.03;;;;;;;17.39;39.56;98669.44;5083933;28;20073;-59
2022/05/03 08:54:55;;;;;;;8.73;3.47;;;;;;;17.52;39.98;98622.34;5076913;28;20033;-59
2022/05/03 08:57:22;;;;;;;5.40;3.67;;;;;;;17.92;39.46;98658.13;5092719;28;20032;-59
2022/05/03 08:59:48;;;;;;;7.35;3.60;;;;;;;18.29;39.32;98656.38;5088903;28;20397;-59
2022/05/03 09:02:14;;;;;;;7.60;2.78;;;;;;;18.50;38.06;98641.88;5085716;28;20086;-60
2022/05/03 09:04:40;;;;;;;11.48;3.25;;;;;;;18.31;36.46;98639.72;5088408;28;20024;-59
2022/05/03 09:07:36;;;;;;;10.02;2.92;;;;;;;18.23;35.48;98635.03;5075913;28;20047;-58
2022/05/03 09:10:21;;;;;;;6.97;2.80;;;;;;;18.53;36.34;98645.13;5071576;28;20103;-59
2022/05/03 09:12:49;;;;;;;8.00;3.03;;;;;;;18.44;35.56;98641.38;5092651;28;20055;-59
2022/05/03 09:15:28;;;;;;;15.35;3.05;;;;;;;18.60;36.87;98633.25;5092679;28;20024;-59
2022/05/03 09:17:53;;;;;;;5.70;2.75;;;;;;;18.57;36.29;98640.50;5092207;28;20024;-59
2022/05/03 09:25:48;;;;;;;7.90;3.33;;;;;;;17.77;35.54;98629.38;5092436;28;20028;-59
2022/05/03 09:28:14;;;;;;;7.50;2.67;;;;;;;18.02;35.91;98622.47;5085928;28;20103;-59
2022/05/03 09:30:46;;;;;;;6.85;3.20;;;;;;;17.86;34.93;98586.00;5073121;28;20028;-58
2022/05/03 09:33:16;;;;;;;12.40;3.30;;;;;;;18.52;35.94;98603.28;5088972;28;20082;-59
2022/05/03 09:35:41;;;;;;;5.28;2.45;;;;;;;18.52;34.79;98608.53;5082516;28;20036;-58
2022/05/03 09:38:07;;;;;;;6.82;2.85;;;;;;;18.55;34.50;98600.44;5084675;28;20465;-58
2022/05/03 09:40:45;;;;;;;4.80;2.70;;;;;;;18.17;33.43;98570.78;5086715;28;20033;-59
2022/05/03 09:43:13;;;;;;;6.53;3.20;;;;;;;18.39;34.91;98608.56;5076320;28;20425;-59
2022/05/03 09:45:39;;;;;;;7.18;2.90;;;;;;;18.38;35.00;98584.13;5092133;28;20337;-59
2022/05/03 09:48:05;;;;;;;5.68;2.90;;;;;;;18.46;34.28;98584.41;5073890;28;20046;-58
2022/05/03 09:50:45;;;;;;;6.00;3.15;;;;;;;18.48;34.40;98586.09;5091538;28;20027;-59
2022/05/03 09:53:21;;;;;;;7.22;3.03;;;;;;;18.44;34.45;98602.06;5084611;28;20020;-59
2022/05/03 09:55:48;;;;;;;6.65;3.05;;;;;;;18.51;34.73;98588.50;5080988;28;20477;-58
2022/05/03 09:58:17;;;;;;;7.75;3.05;;;;;;;18.39;34.99;98550.91;5091761;28;20168;-59
2022/05/03 10:00:44;;;;;;;7.78;3.33;;;;;;;18.39;34.27;98566.63;5091746;28;20070;-59
2022/05/03 10:03:10;;;;;;;15.98;3.42;;;;;;;18.56;34.40;98581.16;5071187;28;20029;-59
2022/05/03 10:05:38;;;;;;;6.57;2.80;;;;;;;18.92;34.94;98575.00;5087724;28;20115;-58
2022/05/03 10:08:05;;;;;;;7.63;2.88;;;;;;;18.82;35.29;98589.72;5091654;28;20123;-58
2022/05/03 10:10:32;;;;;;;12.10;3.58;;;;;;;18.56;34.61;98576.72;5091133;28;20089;-59
2022/05/03 10:12:58;;;;;;;7.88;3.38;;;;;;;18.71;35.37;98572.16;5074017;28;20029;-59
2022/05/03 10:21:17;;;;;;;7.32;3.28;;;;;;;18.54;34.62;98567.28;5071253;28;20124;-59
2022/05/03 10:24:09;;;;;;;9.90;3.05;;;;;;;17.96;34.83;98514.63;5060340;28;20067;-60
2022/05/03 10:26:58;;;;;;;7.93;2.70;;;;;;;18.57;34.99;98564.44;5058896;28;20036;-59
2022/05/03 10:29:25;;;;;;;10.20;2.90;;;;;;;18.33;35.11;98551.31;5089504;28;20024;-59
2022/05/03 10:31:57;;;;;;;4.05;2.65;;;;;;;18.52;35.33;98551.66;5084136;28;20078;-59
2022/05/03 10:34:48;;;;;;;6.78;3.00;;;;;;;18.68;34.86;98551.38;5090751;28;20103;-59
2022/05/03 10:37:28;;;;;;;5.88;3.10;;;;;;;18.47;35.48;98498.75;5062730;28;20043;-59
2022/05/03 10:39:57;;;;;;;6.72;3.08;;;;;;;18.62;34.19;98509.88;5079593;28;20031;-59
2022/05/03 10:42:27;;;;;;;5.07;2.40;;;;;;;18.99;34.31;98528.16;5077937;28;20103;-59
2022/05/03 10:44:53;;;;;;;4.35;3.25;;;;;;;18.94;34.21;98536.38;5093210;28;20035;-59
2022/05/03 10:47:39;;;;;;;7.07;2.63;;;;;;;18.87;33.84;98540.41;5095113;28;20416;-59
2022/05/03 10:50:13;;;;;;;5.22;2.58;;;;;;;19.17;33.53;98532.97;5092511;28;20034;-60
2022/05/03 10:52:39;;;;;;;4.57;2.55;;;;;;;19.28;34.27;98533.00;5076553;28;20077;-59
2022/05/03 10:55:06;;;;;;;5.63;2.55;;;;;;;19.31;33.43;98530.97;5094770;28;20020;-58
2022/05/03 10:57:32;;;;;;;4.78;2.60;;;;;;;19.34;33.80;98511.53;5094470;28;20024;-59
2022/05/03 10:59:57;;;;;;;12.68;3.17;;;;;;;19.20;33.57;98536.22;5084094;28;20086;-59
2022/05/03 11:02:23;;;;;;;8.50;3.08;;;;;;;19.07;34.72;98530.19;5088400;28;20024;-59
2022/05/03 11:05:15;;;;;;;6.57;2.63;;;;;;;18.85;33.72;98523.91;5095189;28;20496;-59
2022/05/03 11:07:41;;;;;;;3.38;2.38;;;;;;;19.02;33.78;98520.06;5065413;28;20048;-59
2022/05/03 11:10:39;;;;;;;4.28;2.70;;;;;;;19.16;34.27;98513.75;5057745;28;20115;-59
2022/05/03 11:13:25;;;;;;;6.35;2.88;;;;;;;18.88;33.50;98515.00;5062044;28;20070;-59
2022/05/03 11:16:19;;;;;;;6.60;2.40;;;;;;;19.00;34.12;98503.59;5074494;28;20120;-59
2022/05/03 11:18:45;;;;;;;4.68;2.60;;;;;;;19.22;33.88;98528.22;5060215;28;20474;-59
2022/05/03 11:21:14;;;;;;;9.02;2.60;;;;;;;19.32;32.13;98505.56;5071196;28;20037;-59
2022/05/03 11:23:51;;;;;;;9.20;2.70;;;;;;;19.23;31.68;98509.72;5070448;28;20036;-59
2022/05/03 11:26:19;;;;;;;4.13;2.33;;;;;;;19.17;32.05;98441.94;5072763;28;20386;-58
2022/05/03 11:28:47;;;;;;;7.40;2.50;;;;;;;19.38;32.32;98501.63;5065740;28;20040;-58
2022/05/03 11:31:15;;;;;;;6.05;2.55;;;;;;;19.05;31.48;98488.31;5071074;28;20389;-59
2022/05/03 11:33:51;;;;;;;15.65;2.85;;;;;;;19.06;32.14;98497.88;5073921;28;20469;-59
2022/05/03 11:36:18;;;;;;;6.18;2.60;;;;;;;19.24;32.74;98490.41;5073029;28;20078;-58
2022/05/03 11:38:47;;;;;;;11.25;3.25;;;;;;;19.17;32.26;98496.22;5072593;28;20033;-58
2022/05/03 11:41:14;;;;;;;7.93;2.50;;;;;;;19.02;31.55;98490.34;5072462;28;20025;-59
2022/05/03 11:43:39;;;;;;;5.55;2.28;;;;;;;19.19;31.97;98473.31;5065714;28;20024;-59
2022/05/03 11:46:05;;;;;;;5.07;2.30;;;;;;;19.27;32.95;98478.84;5073838;28;20111;-59
2022/05/03 11:48:31;;;;;;;9.63;2.38;;;;;;;19.14;31.90;98481.56;5074088;28;20032;-57
2022/05/03 11:56:26;;;;;;;9.95;2.88;;;;;;;18.95;32.28;98469.84;5067349;28;20043;-59
2022/05/03 11:58:54;;;;;;;7.70;2.40;;;;;;;18.97;32.18;98467.09;5064646;28;20382;-58
2022/05/03 12:01:20;;;;;;;5.85;2.50;;;;;;;18.95;31.91;98466.38;5073449;28;20016;-59
2022/05/03 12:03:56;;;;;;;10.00;2.90;;;;;;;18.95;32.21;98413.88;5073632;28;20028;-59
2022/05/03 12:06:22;;;;;;;5.65;2.80;;;;;;;19.44;32.37;98449.47;5075291;28;20028;-59
2022/05/03 12:08:48;;;;;;;7.25;2.40;;;;;;;19.53;32.88;98473.34;5093763;28;20034;-59
2022/05/03 12:11:24;;;;;;;3.80;2.13;;;;;;;19.09;31.19;98404.97;5092303;28;20093;-59
2022/05/03 12:13:50;;;;;;;9.13;2.22;;;;;;;19.12;31.42;98438.84;5093397;28;20020;-59
2022/05/03 12:16:21;;;;;;;6.55;2.63;;;;;;;19.09;31.17;98442.53;5090261;28;20537;-59
2022/05/03 12:18:48;;;;;;;6.60;2.47;;;;;;;19.21;31.67;98453.03;5093603;28;20032;-60
2022/05/03 12:21:21;;;;;;;5.70;2.38;;;;;;;19.21;31.61;98443.38;5093120;28;20161;-60
2022/05/03 12:23:52;;;;;;;7.22;2.80;;;;;;;18.96;31.48;98397.19;5092199;28;20028;-59
2022/05/03 12:26:22;;;;;;;6.10;2.10;;;;;;;19.55;31.78;98458.28;5093324;28;20035;-59